sensor_id;sensor_type;location;lat;lon;timestamp;P1;durP1;ratioP1;P2;durP2;ratioP2
42420;SDS011;28063;48.140;11.588;2024-02-21T00:02:00;1.75;;;0.57;;
42420;SDS011;28063;48.140;11.588;2024-02-21T00:04:26;0.95;;;0.50;;
42420;SDS011;28063;48.140;11.588;2024-02-21T00:06:52;1.30;;;0.70;;
42420;SDS011;28063;48.140;11.588;2024-02-21T00:09:18;1.27;;;0.50;;
42420;SDS011;28063;48.140;11.588;2024-02-21T00:11:45;0.88;;;0.50;;
42420;SDS011;28063;48.140;11.588;2024-02-21T00:14:11;0.77;;;0.55;;
42420;SDS011;28063;48.140;11.588;2024-02-21T00:16:37;0.90;;;0.60;;
42420;SDS011;28063;48.140;11.588;2024-02-21T00:19:03;1.48;;;0.90;;
42420;SDS011;28063;48.140;11.588;2024-02-21T00:21:29;1.42;;;0.70;;
42420;SDS011;28063;48.140;11.588;2024-02-21T00:23:55;1.35;;;0.90;;
42420;SDS011;28063;48.140;11.588;2024-02-21T00:26:21;2.03;;;0.68;;
42420;SDS011;28063;48.140;11.588;2024-02-21T00:28:47;0.70;;;0.70;;
42420;SDS011;28063;48.140;11.588;2024-02-21T00:31:14;0.93;;;0.60;;
42420;SDS011;28063;48.140;11.588;2024-02-21T00:33:40;1.27;;;0.77;;
42420;SDS011;28063;48.140;11.588;2024-02-21T00:36:06;1.67;;;0.60;;
42420;SDS011;28063;48.140;11.588;2024-02-21T00:38:32;2.55;;;0.90;;
42420;SDS011;28063;48.140;11.588;2024-02-21T00:40:58;1.55;;;0.68;;
42420;SDS011;28063;48.140;11.588;2024-02-21T00:43:24;0.82;;;0.50;;
42420;SDS011;28063;48.140;11.588;2024-02-21T00:45:50;0.65;;;0.57;;
42420;SDS011;28063;48.140;11.588;2024-02-21T00:48:16;1.50;;;0.75;;
42420;SDS011;28063;48.140;11.588;2024-02-21T00:50:42;1.95;;;0.70;;
42420;SDS011;28063;48.140;11.588;2024-02-21T00:53:08;1.25;;;0.65;;
42420;SDS011;28063;48.140;11.588;2024-02-21T00:55:35;0.75;;;0.57;;
42420;SDS011;28063;48.140;11.588;2024-02-21T00:58:01;1.27;;;0.68;;
42420;SDS011;28063;48.140;11.588;2024-02-21T01:00:27;1.38;;;0.70;;
42420;SDS011;28063;48.140;11.588;2024-02-21T01:02:54;2.63;;;1.00;;
42420;SDS011;28063;48.140;11.588;2024-02-21T01:05:20;1.45;;;0.60;;
42420;SDS011;28063;48.140;11.588;2024-02-21T01:07:46;1.48;;;0.88;;
42420;SDS011;28063;48.140;11.588;2024-02-21T01:10:12;1.83;;;1.02;;
42420;SDS011;28063;48.140;11.588;2024-02-21T01:12:38;1.95;;;0.80;;
42420;SDS011;28063;48.140;11.588;2024-02-21T01:15:04;2.50;;;1.17;;
42420;SDS011;28063;48.140;11.588;2024-02-21T01:17:30;1.52;;;0.88;;
42420;SDS011;28063;48.140;11.588;2024-02-21T01:19:56;1.67;;;0.80;;
42420;SDS011;28063;48.140;11.588;2024-02-21T01:22:22;1.10;;;0.73;;
42420;SDS011;28063;48.140;11.588;2024-02-21T01:24:48;1.40;;;0.80;;
42420;SDS011;28063;48.140;11.588;2024-02-21T01:27:14;2.85;;;1.33;;
42420;SDS011;28063;48.140;11.588;2024-02-21T01:29:41;1.25;;;0.80;;
42420;SDS011;28063;48.140;11.588;2024-02-21T01:32:07;2.00;;;0.82;;
42420;SDS011;28063;48.140;11.588;2024-02-21T01:34:33;1.85;;;0.95;;
42420;SDS011;28063;48.140;11.588;2024-02-21T01:36:59;3.05;;;1.13;;
42420;SDS011;28063;48.140;11.588;2024-02-21T01:39:29;1.75;;;0.85;;
42420;SDS011;28063;48.140;11.588;2024-02-21T01:41:55;2.28;;;0.93;;
42420;SDS011;28063;48.140;11.588;2024-02-21T01:44:21;1.67;;;0.77;;
42420;SDS011;28063;48.140;11.588;2024-02-21T01:46:47;1.40;;;0.65;;
42420;SDS011;28063;48.140;11.588;2024-02-21T01:49:13;2.05;;;1.23;;
42420;SDS011;28063;48.140;11.588;2024-02-21T01:51:39;2.28;;;0.98;;
42420;SDS011;28063;48.140;11.588;2024-02-21T01:54:06;1.70;;;0.85;;
42420;SDS011;28063;48.140;11.588;2024-02-21T01:56:32;1.52;;;0.70;;
42420;SDS011;28063;48.140;11.588;2024-02-21T01:58:58;0.77;;;0.70;;
42420;SDS011;28063;48.140;11.588;2024-02-21T02:01:25;0.70;;;0.60;;
42420;SDS011;28063;48.140;11.588;2024-02-21T02:03:51;2.05;;;0.70;;
42420;SDS011;28063;48.140;11.588;2024-02-21T02:06:17;1.02;;;0.43;;
42420;SDS011;28063;48.140;11.588;2024-02-21T02:08:43;0.38;;;0.38;;
42420;SDS011;28063;48.140;11.588;2024-02-21T02:11:10;0.50;;;0.50;;
42420;SDS011;28063;48.140;11.588;2024-02-21T02:13:36;1.02;;;0.60;;
42420;SDS011;28063;48.140;11.588;2024-02-21T02:16:02;1.75;;;0.80;;
42420;SDS011;28063;48.140;11.588;2024-02-21T02:18:28;1.73;;;0.63;;
42420;SDS011;28063;48.140;11.588;2024-02-21T02:20:54;0.60;;;0.55;;
42420;SDS011;28063;48.140;11.588;2024-02-21T02:23:25;1.40;;;0.80;;
42420;SDS011;28063;48.140;11.588;2024-02-21T02:25:51;1.00;;;0.93;;
42420;SDS011;28063;48.140;11.588;2024-02-21T02:28:17;2.15;;;0.70;;
42420;SDS011;28063;48.140;11.588;2024-02-21T02:30:44;2.92;;;0.80;;
42420;SDS011;28063;48.140;11.588;2024-02-21T02:33:10;0.80;;;0.73;;
42420;SDS011;28063;48.140;11.588;2024-02-21T02:35:36;1.50;;;0.70;;
42420;SDS011;28063;48.140;11.588;2024-02-21T02:38:03;1.23;;;0.73;;
42420;SDS011;28063;48.140;11.588;2024-02-21T02:40:29;1.55;;;0.70;;
42420;SDS011;28063;48.140;11.588;2024-02-21T02:42:55;1.40;;;0.70;;
42420;SDS011;28063;48.140;11.588;2024-02-21T02:45:22;2.25;;;0.68;;
42420;SDS011;28063;48.140;11.588;2024-02-21T02:47:49;1.35;;;0.60;;
42420;SDS011;28063;48.140;11.588;2024-02-21T02:50:15;0.77;;;0.60;;
42420;SDS011;28063;48.140;11.588;2024-02-21T02:52:41;0.95;;;0.50;;
42420;SDS011;28063;48.140;11.588;2024-02-21T02:55:07;0.70;;;0.50;;
42420;SDS011;28063;48.140;11.588;2024-02-21T02:57:33;1.77;;;0.77;;
42420;SDS011;28063;48.140;11.588;2024-02-21T02:59:59;1.65;;;0.63;;
42420;SDS011;28063;48.140;11.588;2024-02-21T03:02:25;1.67;;;0.82;;
42420;SDS011;28063;48.140;11.588;2024-02-21T03:04:51;1.50;;;0.77;;
42420;SDS011;28063;48.140;11.588;2024-02-21T03:07:18;0.70;;;0.50;;
42420;SDS011;28063;48.140;11.588;2024-02-21T03:09:44;1.80;;;0.55;;
42420;SDS011;28063;48.140;11.588;2024-02-21T03:12:10;1.92;;;0.80;;
42420;SDS011;28063;48.140;11.588;2024-02-21T03:14:37;1.00;;;0.60;;
42420;SDS011;28063;48.140;11.588;2024-02-21T03:17:03;0.43;;;0.43;;
42420;SDS011;28063;48.140;11.588;2024-02-21T03:19:30;1.30;;;0.55;;
42420;SDS011;28063;48.140;11.588;2024-02-21T03:21:56;0.90;;;0.50;;
42420;SDS011;28063;48.140;11.588;2024-02-21T03:24:22;0.70;;;0.50;;
42420;SDS011;28063;48.140;11.588;2024-02-21T03:26:48;0.50;;;0.50;;
42420;SDS011;28063;48.140;11.588;2024-02-21T03:29:16;1.25;;;0.85;;
42420;SDS011;28063;48.140;11.588;2024-02-21T03:31:42;0.77;;;0.50;;
42420;SDS011;28063;48.140;11.588;2024-02-21T03:34:12;1.17;;;0.55;;
42420;SDS011;28063;48.140;11.588;2024-02-21T03:36:38;1.38;;;0.60;;
42420;SDS011;28063;48.140;11.588;2024-02-21T03:39:04;1.00;;;0.60;;
42420;SDS011;28063;48.140;11.588;2024-02-21T03:41:30;1.98;;;0.70;;
42420;SDS011;28063;48.140;11.588;2024-02-21T03:43:56;1.40;;;0.75;;
42420;SDS011;28063;48.140;11.588;2024-02-21T03:46:23;0.88;;;0.50;;
42420;SDS011;28063;48.140;11.588;2024-02-21T03:48:50;0.60;;;0.40;;
42420;SDS011;28063;48.140;11.588;2024-02-21T03:51:16;0.47;;;0.40;;
42420;SDS011;28063;48.140;11.588;2024-02-21T03:53:42;0.47;;;0.47;;
42420;SDS011;28063;48.140;11.588;2024-02-21T03:56:08;0.65;;;0.50;;
42420;SDS011;28063;48.140;11.588;2024-02-21T03:58:34;2.45;;;0.60;;
42420;SDS011;28063;48.140;11.588;2024-02-21T04:01:00;0.43;;;0.43;;
42420;SDS011;28063;48.140;11.588;2024-02-21T04:03:27;1.70;;;0.65;;
42420;SDS011;28063;48.140;11.588;2024-02-21T04:05:53;1.35;;;0.60;;
42420;SDS011;28063;48.140;11.588;2024-02-21T04:08:19;0.85;;;0.40;;
42420;SDS011;28063;48.140;11.588;2024-02-21T04:10:45;0.60;;;0.40;;
42420;SDS011;28063;48.140;11.588;2024-02-21T04:13:11;1.63;;;0.50;;
42420;SDS011;28063;48.140;11.588;2024-02-21T04:15:37;2.40;;;0.55;;
42420;SDS011;28063;48.140;11.588;2024-02-21T04:18:03;0.95;;;0.68;;
42420;SDS011;28063;48.140;11.588;2024-02-21T04:20:29;1.88;;;0.90;;
42420;SDS011;28063;48.140;11.588;2024-02-21T04:22:56;0.50;;;0.38;;
42420;SDS011;28063;48.140;11.588;2024-02-21T04:25:22;1.45;;;0.40;;
42420;SDS011;28063;48.140;11.588;2024-02-21T04:27:48;0.77;;;0.60;;
42420;SDS011;28063;48.140;11.588;2024-02-21T04:30:14;2.25;;;0.50;;
42420;SDS011;28063;48.140;11.588;2024-02-21T04:32:40;0.93;;;0.50;;
42420;SDS011;28063;48.140;11.588;2024-02-21T04:35:07;0.60;;;0.40;;
42420;SDS011;28063;48.140;11.588;2024-02-21T04:37:33;0.30;;;0.30;;
42420;SDS011;28063;48.140;11.588;2024-02-21T04:39:59;0.43;;;0.40;;
42420;SDS011;28063;48.140;11.588;2024-02-21T04:42:25;1.80;;;0.40;;
42420;SDS011;28063;48.140;11.588;2024-02-21T04:44:51;1.00;;;0.52;;
42420;SDS011;28063;48.140;11.588;2024-02-21T04:47:17;1.63;;;0.40;;
42420;SDS011;28063;48.140;11.588;2024-02-21T04:49:45;0.82;;;0.70;;
42420;SDS011;28063;48.140;11.588;2024-02-21T04:52:11;0.47;;;0.40;;
42420;SDS011;28063;48.140;11.588;2024-02-21T04:54:37;0.52;;;0.50;;
42420;SDS011;28063;48.140;11.588;2024-02-21T04:57:03;0.38;;;0.38;;
42420;SDS011;28063;48.140;11.588;2024-02-21T04:59:30;0.70;;;0.40;;
42420;SDS011;28063;48.140;11.588;2024-02-21T05:01:56;1.05;;;0.43;;
42420;SDS011;28063;48.140;11.588;2024-02-21T05:04:23;0.85;;;0.40;;
42420;SDS011;28063;48.140;11.588;2024-02-21T05:06:49;0.30;;;0.30;;
42420;SDS011;28063;48.140;11.588;2024-02-21T05:09:15;0.43;;;0.40;;
42420;SDS011;28063;48.140;11.588;2024-02-21T05:11:41;0.60;;;0.30;;
42420;SDS011;28063;48.140;11.588;2024-02-21T05:14:07;1.08;;;0.43;;
42420;SDS011;28063;48.140;11.588;2024-02-21T05:16:33;0.38;;;0.38;;
42420;SDS011;28063;48.140;11.588;2024-02-21T05:18:59;0.40;;;0.30;;
42420;SDS011;28063;48.140;11.588;2024-02-21T05:21:26;1.27;;;0.45;;
42420;SDS011;28063;48.140;11.588;2024-02-21T05:23:53;0.60;;;0.50;;
42420;SDS011;28063;48.140;11.588;2024-02-21T05:26:20;1.65;;;0.38;;
42420;SDS011;28063;48.140;11.588;2024-02-21T05:28:46;0.85;;;0.52;;
42420;SDS011;28063;48.140;11.588;2024-02-21T05:31:12;1.15;;;0.25;;
42420;SDS011;28063;48.140;11.588;2024-02-21T05:33:39;1.02;;;0.57;;
42420;SDS011;28063;48.140;11.588;2024-02-21T05:36:05;0.40;;;0.40;;
42420;SDS011;28063;48.140;11.588;2024-02-21T05:38:32;1.20;;;0.52;;
42420;SDS011;28063;48.140;11.588;2024-02-21T05:40:58;0.60;;;0.43;;
42420;SDS011;28063;48.140;11.588;2024-02-21T05:43:24;0.85;;;0.40;;
42420;SDS011;28063;48.140;11.588;2024-02-21T05:45:50;0.40;;;0.40;;
42420;SDS011;28063;48.140;11.588;2024-02-21T05:48:16;0.43;;;0.40;;
42420;SDS011;28063;48.140;11.588;2024-02-21T05:50:42;0.40;;;0.30;;
42420;SDS011;28063;48.140;11.588;2024-02-21T05:53:08;0.43;;;0.30;;
42420;SDS011;28063;48.140;11.588;2024-02-21T05:55:36;0.20;;;0.20;;
42420;SDS011;28063;48.140;11.588;2024-02-21T05:58:02;0.38;;;0.38;;
42420;SDS011;28063;48.140;11.588;2024-02-21T06:00:28;0.43;;;0.38;;
42420;SDS011;28063;48.140;11.588;2024-02-21T06:02:54;0.50;;;0.30;;
42420;SDS011;28063;48.140;11.588;2024-02-21T06:05:21;0.57;;;0.40;;
42420;SDS011;28063;48.140;11.588;2024-02-21T06:07:47;0.57;;;0.40;;
42420;SDS011;28063;48.140;11.588;2024-02-21T06:10:14;0.20;;;0.20;;
42420;SDS011;28063;48.140;11.588;2024-02-21T06:12:40;0.55;;;0.38;;
42420;SDS011;28063;48.140;11.588;2024-02-21T06:15:06;0.30;;;0.30;;
42420;SDS011;28063;48.140;11.588;2024-02-21T06:17:32;0.40;;;0.40;;
42420;SDS011;28063;48.140;11.588;2024-02-21T06:19:59;0.50;;;0.40;;
42420;SDS011;28063;48.140;11.588;2024-02-21T06:22:25;0.28;;;0.25;;
42420;SDS011;28063;48.140;11.588;2024-02-21T06:24:51;0.40;;;0.30;;
42420;SDS011;28063;48.140;11.588;2024-02-21T06:27:19;1.42;;;0.50;;
42420;SDS011;28063;48.140;11.588;2024-02-21T06:29:45;0.30;;;0.17;;
42420;SDS011;28063;48.140;11.588;2024-02-21T06:32:11;0.68;;;0.30;;
42420;SDS011;28063;48.140;11.588;2024-02-21T06:34:37;0.45;;;0.40;;
42420;SDS011;28063;48.140;11.588;2024-02-21T06:37:04;0.32;;;0.32;;
42420;SDS011;28063;48.140;11.588;2024-02-21T06:39:30;2.72;;;0.50;;
42420;SDS011;28063;48.140;11.588;2024-02-21T06:41:56;1.15;;;0.40;;
42420;SDS011;28063;48.140;11.588;2024-02-21T06:44:22;0.70;;;0.38;;
42420;SDS011;28063;48.140;11.588;2024-02-21T06:46:48;0.20;;;0.20;;
42420;SDS011;28063;48.140;11.588;2024-02-21T06:49:14;0.45;;;0.20;;
42420;SDS011;28063;48.140;11.588;2024-02-21T06:51:43;0.80;;;0.50;;
42420;SDS011;28063;48.140;11.588;2024-02-21T06:54:09;0.40;;;0.30;;
42420;SDS011;28063;48.140;11.588;2024-02-21T06:56:35;0.40;;;0.40;;
42420;SDS011;28063;48.140;11.588;2024-02-21T06:59:02;0.60;;;0.50;;
42420;SDS011;28063;48.140;11.588;2024-02-21T07:01:29;0.43;;;0.35;;
42420;SDS011;28063;48.140;11.588;2024-02-21T07:03:55;0.30;;;0.30;;
42420;SDS011;28063;48.140;11.588;2024-02-21T07:06:21;1.15;;;0.57;;
42420;SDS011;28063;48.140;11.588;2024-02-21T07:08:47;1.33;;;1.10;;
42420;SDS011;28063;48.140;11.588;2024-02-21T07:11:13;1.15;;;1.00;;
42420;SDS011;28063;48.140;11.588;2024-02-21T07:13:40;1.70;;;1.23;;
42420;SDS011;28063;48.140;11.588;2024-02-21T07:16:06;1.17;;;0.80;;
42420;SDS011;28063;48.140;11.588;2024-02-21T07:18:33;1.02;;;0.90;;
42420;SDS011;28063;48.140;11.588;2024-02-21T07:20:59;1.50;;;1.13;;
42420;SDS011;28063;48.140;11.588;2024-02-21T07:23:25;0.82;;;0.65;;
42420;SDS011;28063;48.140;11.588;2024-02-21T07:25:51;0.95;;;0.73;;
42420;SDS011;28063;48.140;11.588;2024-02-21T07:28:17;0.50;;;0.50;;
42420;SDS011;28063;48.140;11.588;2024-02-21T07:30:44;1.67;;;0.60;;
42420;SDS011;28063;48.140;11.588;2024-02-21T07:33:10;0.40;;;0.40;;
42420;SDS011;28063;48.140;11.588;2024-02-21T07:35:36;0.65;;;0.52;;
42420;SDS011;28063;48.140;11.588;2024-02-21T07:38:03;0.30;;;0.30;;
42420;SDS011;28063;48.140;11.588;2024-02-21T07:40:30;1.33;;;0.30;;
42420;SDS011;28063;48.140;11.588;2024-02-21T07:42:56;0.32;;;0.30;;
42420;SDS011;28063;48.140;11.588;2024-02-21T07:45:22;0.82;;;0.30;;
42420;SDS011;28063;48.140;11.588;2024-02-21T07:47:49;0.50;;;0.40;;
42420;SDS011;28063;48.140;11.588;2024-02-21T07:50:15;0.40;;;0.40;;
42420;SDS011;28063;48.140;11.588;2024-02-21T07:52:42;0.30;;;0.30;;
42420;SDS011;28063;48.140;11.588;2024-02-21T07:55:08;1.92;;;0.30;;
42420;SDS011;28063;48.140;11.588;2024-02-21T07:57:36;0.40;;;0.30;;
42420;SDS011;28063;48.140;11.588;2024-02-21T08:00:03;0.20;;;0.20;;
42420;SDS011;28063;48.140;11.588;2024-02-21T08:02:29;0.25;;;0.25;;
42420;SDS011;28063;48.140;11.588;2024-02-21T08:04:55;0.10;;;0.10;;
42420;SDS011;28063;48.140;11.588;2024-02-21T08:07:21;0.28;;;0.20;;
42420;SDS011;28063;48.140;11.588;2024-02-21T08:09:48;0.30;;;0.30;;
42420;SDS011;28063;48.140;11.588;2024-02-21T08:12:14;0.10;;;0.10;;
42420;SDS011;28063;48.140;11.588;2024-02-21T08:14:40;0.50;;;0.25;;
42420;SDS011;28063;48.140;11.588;2024-02-21T08:17:06;0.20;;;0.20;;
42420;SDS011;28063;48.140;11.588;2024-02-21T08:19:34;0.30;;;0.30;;
42420;SDS011;28063;48.140;11.588;2024-02-21T08:22:01;0.35;;;0.20;;
42420;SDS011;28063;48.140;11.588;2024-02-21T08:24:28;0.28;;;0.28;;
42420;SDS011;28063;48.140;11.588;2024-02-21T08:26:54;0.43;;;0.30;;
42420;SDS011;28063;48.140;11.588;2024-02-21T08:29:20;0.25;;;0.25;;
42420;SDS011;28063;48.140;11.588;2024-02-21T08:31:46;1.58;;;0.47;;
42420;SDS011;28063;48.140;11.588;2024-02-21T08:34:12;0.45;;;0.43;;
42420;SDS011;28063;48.140;11.588;2024-02-21T08:36:38;0.28;;;0.25;;
42420;SDS011;28063;48.140;11.588;2024-02-21T08:39:05;0.10;;;0.10;;
42420;SDS011;28063;48.140;11.588;2024-02-21T08:41:31;0.20;;;0.20;;
42420;SDS011;28063;48.140;11.588;2024-02-21T08:43:57;0.40;;;0.28;;
42420;SDS011;28063;48.140;11.588;2024-02-21T08:46:24;0.82;;;0.30;;
42420;SDS011;28063;48.140;11.588;2024-02-21T08:48:51;0.38;;;0.20;;
42420;SDS011;28063;48.140;11.588;2024-02-21T08:51:17;0.20;;;0.17;;
42420;SDS011;28063;48.140;11.588;2024-02-21T08:53:44;0.30;;;0.30;;
42420;SDS011;28063;48.140;11.588;2024-02-21T08:56:10;0.65;;;0.28;;
42420;SDS011;28063;48.140;11.588;2024-02-21T08:58:36;0.57;;;0.30;;
42420;SDS011;28063;48.140;11.588;2024-02-21T09:01:03;1.05;;;0.20;;
42420;SDS011;28063;48.140;11.588;2024-02-21T09:03:33;0.43;;;0.40;;
42420;SDS011;28063;48.140;11.588;2024-02-21T09:05:59;0.28;;;0.20;;
42420;SDS011;28063;48.140;11.588;2024-02-21T09:08:26;0.30;;;0.30;;
42420;SDS011;28063;48.140;11.588;2024-02-21T09:10:52;0.50;;;0.50;;
42420;SDS011;28063;48.140;11.588;2024-02-21T09:13:19;0.55;;;0.50;;
42420;SDS011;28063;48.140;11.588;2024-02-21T09:15:45;2.03;;;0.50;;
42420;SDS011;28063;48.140;11.588;2024-02-21T09:18:11;0.68;;;0.40;;
42420;SDS011;28063;48.140;11.588;2024-02-21T09:20:37;2.38;;;0.43;;
42420;SDS011;28063;48.140;11.588;2024-02-21T09:23:03;0.30;;;0.30;;
42420;SDS011;28063;48.140;11.588;2024-02-21T09:25:29;0.80;;;0.35;;
42420;SDS011;28063;48.140;11.588;2024-02-21T09:27:56;1.23;;;0.82;;
42420;SDS011;28063;48.140;11.588;2024-02-21T09:30:23;0.75;;;0.50;;
42420;SDS011;28063;48.140;11.588;2024-02-21T09:32:49;0.35;;;0.35;;
42420;SDS011;28063;48.140;11.588;2024-02-21T09:35:16;0.55;;;0.50;;
42420;SDS011;28063;48.140;11.588;2024-02-21T09:37:42;0.68;;;0.40;;
42420;SDS011;28063;48.140;11.588;2024-02-21T09:40:08;0.30;;;0.30;;
42420;SDS011;28063;48.140;11.588;2024-02-21T09:45:01;1.90;;;0.63;;
42420;SDS011;28063;48.140;11.588;2024-02-21T09:47:30;0.63;;;0.43;;
42420;SDS011;28063;48.140;11.588;2024-02-21T09:49:59;1.75;;;0.50;;
42420;SDS011;28063;48.140;11.588;2024-02-21T09:52:27;0.60;;;0.60;;
42420;SDS011;28063;48.140;11.588;2024-02-21T09:54:53;0.75;;;0.55;;
42420;SDS011;28063;48.140;11.588;2024-02-21T09:57:19;0.65;;;0.30;;
42420;SDS011;28063;48.140;11.588;2024-02-21T09:59:46;0.77;;;0.60;;
42420;SDS011;28063;48.140;11.588;2024-02-21T10:02:12;0.50;;;0.25;;
42420;SDS011;28063;48.140;11.588;2024-02-21T10:04:39;0.43;;;0.43;;
42420;SDS011;28063;48.140;11.588;2024-02-21T10:07:06;0.85;;;0.45;;
42420;SDS011;28063;48.140;11.588;2024-02-21T10:09:33;0.73;;;0.40;;
42420;SDS011;28063;48.140;11.588;2024-02-21T10:12:08;2.13;;;0.40;;
42420;SDS011;28063;48.140;11.588;2024-02-21T10:14:35;1.05;;;0.30;;
42420;SDS011;28063;48.140;11.588;2024-02-21T10:17:01;0.93;;;0.73;;
42420;SDS011;28063;48.140;11.588;2024-02-21T10:19:28;0.63;;;0.57;;
42420;SDS011;28063;48.140;11.588;2024-02-21T10:22:05;0.65;;;0.45;;
42420;SDS011;28063;48.140;11.588;2024-02-21T10:24:32;0.85;;;0.60;;
42420;SDS011;28063;48.140;11.588;2024-02-21T10:27:06;0.77;;;0.47;;
42420;SDS011;28063;48.140;11.588;2024-02-21T10:29:38;0.38;;;0.30;;
42420;SDS011;28063;48.140;11.588;2024-02-21T10:32:08;0.88;;;0.25;;
42420;SDS011;28063;48.140;11.588;2024-02-21T10:34:36;1.10;;;0.63;;
42420;SDS011;28063;48.140;11.588;2024-02-21T10:37:02;0.38;;;0.30;;
42420;SDS011;28063;48.140;11.588;2024-02-21T10:39:32;2.15;;;0.45;;
42420;SDS011;28063;48.140;11.588;2024-02-21T10:42:02;0.70;;;0.38;;
42420;SDS011;28063;48.140;11.588;2024-02-21T10:44:29;1.15;;;0.40;;
42420;SDS011;28063;48.140;11.588;2024-02-21T10:46:56;0.68;;;0.30;;
42420;SDS011;28063;48.140;11.588;2024-02-21T10:49:23;0.55;;;0.30;;
42420;SDS011;28063;48.140;11.588;2024-02-21T10:57:01;0.43;;;0.40;;
42420;SDS011;28063;48.140;11.588;2024-02-21T10:59:28;1.10;;;0.47;;
42420;SDS011;28063;48.140;11.588;2024-02-21T11:01:57;1.17;;;0.38;;
42420;SDS011;28063;48.140;11.588;2024-02-21T11:04:23;0.50;;;0.30;;
42420;SDS011;28063;48.140;11.588;2024-02-21T11:06:50;0.40;;;0.40;;
42420;SDS011;28063;48.140;11.588;2024-02-21T11:09:16;0.30;;;0.30;;
42420;SDS011;28063;48.140;11.588;2024-02-21T11:11:43;1.02;;;0.40;;
42420;SDS011;28063;48.140;11.588;2024-02-21T11:14:10;0.20;;;0.20;;
42420;SDS011;28063;48.140;11.588;2024-02-21T11:16:40;0.40;;;0.40;;
42420;SDS011;28063;48.140;11.588;2024-02-21T11:19:07;0.40;;;0.40;;
42420;SDS011;28063;48.140;11.588;2024-02-21T11:21:35;0.30;;;0.30;;
42420;SDS011;28063;48.140;11.588;2024-02-21T11:24:02;0.57;;;0.32;;
42420;SDS011;28063;48.140;11.588;2024-02-21T11:26:28;0.30;;;0.30;;
42420;SDS011;28063;48.140;11.588;2024-02-21T11:29:00;0.22;;;0.22;;
42420;SDS011;28063;48.140;11.588;2024-02-21T11:31:40;0.30;;;0.30;;
42420;SDS011;28063;48.140;11.588;2024-02-21T11:34:12;0.25;;;0.25;;
42420;SDS011;28063;48.140;11.588;2024-02-21T11:36:48;0.30;;;0.30;;
42420;SDS011;28063;48.140;11.588;2024-02-21T11:39:18;0.73;;;0.40;;
42420;SDS011;28063;48.140;11.588;2024-02-21T11:41:46;0.40;;;0.40;;
42420;SDS011;28063;48.140;11.588;2024-02-21T11:44:12;0.35;;;0.30;;
42420;SDS011;28063;48.140;11.588;2024-02-21T11:46:38;0.20;;;0.20;;
42420;SDS011;28063;48.140;11.588;2024-02-21T11:49:04;0.20;;;0.20;;
42420;SDS011;28063;48.140;11.588;2024-02-21T11:51:30;0.28;;;0.20;;
42420;SDS011;28063;48.140;11.588;2024-02-21T11:53:56;0.30;;;0.30;;
42420;SDS011;28063;48.140;11.588;2024-02-21T11:56:23;0.40;;;0.40;;
42420;SDS011;28063;48.140;11.588;2024-02-21T11:58:52;0.57;;;0.40;;
42420;SDS011;28063;48.140;11.588;2024-02-21T12:01:18;0.38;;;0.35;;
42420;SDS011;28063;48.140;11.588;2024-02-21T12:03:44;0.45;;;0.30;;
42420;SDS011;28063;48.140;11.588;2024-02-21T12:06:15;0.30;;;0.30;;
42420;SDS011;28063;48.140;11.588;2024-02-21T12:08:44;1.40;;;0.63;;
42420;SDS011;28063;48.140;11.588;2024-02-21T12:11:20;0.40;;;0.40;;
42420;SDS011;28063;48.140;11.588;2024-02-21T12:13:47;0.40;;;0.40;;
42420;SDS011;28063;48.140;11.588;2024-02-21T12:16:16;0.35;;;0.35;;
42420;SDS011;28063;48.140;11.588;2024-02-21T12:18:43;0.30;;;0.30;;
42420;SDS011;28063;48.140;11.588;2024-02-21T12:21:09;0.63;;;0.40;;
42420;SDS011;28063;48.140;11.588;2024-02-21T12:23:37;0.65;;;0.63;;
42420;SDS011;28063;48.140;11.588;2024-02-21T12:26:04;0.20;;;0.20;;
42420;SDS011;28063;48.140;11.588;2024-02-21T12:28:30;0.30;;;0.30;;
42420;SDS011;28063;48.140;11.588;2024-02-21T12:30:56;0.20;;;0.20;;
42420;SDS011;28063;48.140;11.588;2024-02-21T12:33:22;0.20;;;0.20;;
42420;SDS011;28063;48.140;11.588;2024-02-21T12:35:48;0.22;;;0.22;;
42420;SDS011;28063;48.140;11.588;2024-02-21T12:38:15;0.28;;;0.28;;
42420;SDS011;28063;48.140;11.588;2024-02-21T12:40:42;0.20;;;0.20;;
42420;SDS011;28063;48.140;11.588;2024-02-21T12:43:09;0.13;;;0.13;;
42420;SDS011;28063;48.140;11.588;2024-02-21T12:45:35;0.20;;;0.20;;
42420;SDS011;28063;48.140;11.588;2024-02-21T12:48:01;0.20;;;0.20;;
42420;SDS011;28063;48.140;11.588;2024-02-21T12:50:27;0.10;;;0.10;;
42420;SDS011;28063;48.140;11.588;2024-02-21T12:52:53;0.10;;;0.10;;
42420;SDS011;28063;48.140;11.588;2024-02-21T12:55:19;0.95;;;0.30;;
42420;SDS011;28063;48.140;11.588;2024-02-21T12:57:45;0.30;;;0.30;;
42420;SDS011;28063;48.140;11.588;2024-02-21T13:00:11;0.50;;;0.30;;
42420;SDS011;28063;48.140;11.588;2024-02-21T13:02:37;0.80;;;0.50;;
42420;SDS011;28063;48.140;11.588;2024-02-21T13:05:04;0.30;;;0.30;;
42420;SDS011;28063;48.140;11.588;2024-02-21T13:07:30;0.38;;;0.38;;
42420;SDS011;28063;48.140;11.588;2024-02-21T13:09:57;0.30;;;0.30;;
42420;SDS011;28063;48.140;11.588;2024-02-21T13:12:23;0.52;;;0.20;;
42420;SDS011;28063;48.140;11.588;2024-02-21T13:14:51;0.25;;;0.25;;
42420;SDS011;28063;48.140;11.588;2024-02-21T13:17:17;0.43;;;0.43;;
42420;SDS011;28063;48.140;11.588;2024-02-21T13:19:43;0.30;;;0.30;;
42420;SDS011;28063;48.140;11.588;2024-02-21T13:22:09;0.88;;;0.50;;
42420;SDS011;28063;48.140;11.588;2024-02-21T13:24:36;0.73;;;0.70;;
42420;SDS011;28063;48.140;11.588;2024-02-21T13:27:02;0.25;;;0.20;;
42420;SDS011;28063;48.140;11.588;2024-02-21T13:29:28;0.60;;;0.30;;
42420;SDS011;28063;48.140;11.588;2024-02-21T13:31:54;0.20;;;0.20;;
42420;SDS011;28063;48.140;11.588;2024-02-21T13:34:20;1.02;;;0.40;;
42420;SDS011;28063;48.140;11.588;2024-02-21T13:36:46;0.35;;;0.35;;
42420;SDS011;28063;48.140;11.588;2024-02-21T13:39:12;0.52;;;0.30;;
42420;SDS011;28063;48.140;11.588;2024-02-21T13:41:40;0.20;;;0.20;;
42420;SDS011;28063;48.140;11.588;2024-02-21T13:44:07;1.48;;;0.30;;
42420;SDS011;28063;48.140;11.588;2024-02-21T13:46:34;0.43;;;0.43;;
42420;SDS011;28063;48.140;11.588;2024-02-21T13:49:04;0.43;;;0.43;;
42420;SDS011;28063;48.140;11.588;2024-02-21T13:51:34;0.30;;;0.30;;
42420;SDS011;28063;48.140;11.588;2024-02-21T13:54:05;0.63;;;0.38;;
42420;SDS011;28063;48.140;11.588;2024-02-21T13:56:34;0.25;;;0.20;;
42420;SDS011;28063;48.140;11.588;2024-02-21T13:59:00;0.40;;;0.40;;
42420;SDS011;28063;48.140;11.588;2024-02-21T14:01:26;0.17;;;0.17;;
42420;SDS011;28063;48.140;11.588;2024-02-21T14:06:24;0.60;;;0.20;;
42420;SDS011;28063;48.140;11.588;2024-02-21T14:08:50;0.75;;;0.22;;
42420;SDS011;28063;48.140;11.588;2024-02-21T14:11:16;0.30;;;0.30;;
42420;SDS011;28063;48.140;11.588;2024-02-21T14:13:43;0.22;;;0.22;;
42420;SDS011;28063;48.140;11.588;2024-02-21T14:16:10;0.40;;;0.30;;
42420;SDS011;28063;48.140;11.588;2024-02-21T14:18:42;0.20;;;0.20;;
42420;SDS011;28063;48.140;11.588;2024-02-21T14:21:08;0.30;;;0.30;;
42420;SDS011;28063;48.140;11.588;2024-02-21T14:23:37;0.35;;;0.30;;
42420;SDS011;28063;48.140;11.588;2024-02-21T14:26:04;0.55;;;0.45;;
42420;SDS011;28063;48.140;11.588;2024-02-21T14:28:31;0.30;;;0.30;;
42420;SDS011;28063;48.140;11.588;2024-02-21T14:30:59;0.32;;;0.32;;
42420;SDS011;28063;48.140;11.588;2024-02-21T14:33:28;0.70;;;0.30;;
42420;SDS011;28063;48.140;11.588;2024-02-21T14:35:54;0.43;;;0.30;;
42420;SDS011;28063;48.140;11.588;2024-02-21T14:38:21;0.63;;;0.50;;
42420;SDS011;28063;48.140;11.588;2024-02-21T14:40:47;1.60;;;0.30;;